Time;durP1;ratioP1;P1;durP2;ratioP2;P2;SDS_P1;SDS_P2;PMS_P1;PMS_P2;Temp;Humidity;BMP_temperature;BMP_pressure;BME280_temperature;BME280_humidity;BME280_pressure;Samples;Min_cycle;Max_cycle;Signal;HPM_P1;HPM_P2
2022/08/20 00:00:47;;;;;;;;;;;24.00;61.60;;;;;;6321731;27;19923;-39
2022/08/20 00:03:48;;;;;;;;;;;24.00;61.40;;;;;;6307428;27;20007;-40
2022/08/20 00:06:54;;;;;;;;;;;23.90;61.40;;;;;;6307820;27;19979;-41
2022/08/20 00:09:56;;;;;;;;;;;24.20;61.60;;;;;;6326329;27;19927;-39
2022/08/20 00:12:57;;;;;;;;;;;24.30;61.60;;;;;;6324772;27;19926;-40
2022/08/20 00:15:59;;;;;;;;;;;24.20;61.60;;;;;;6324227;27;20811;-39
2022/08/20 00:19:04;;;;;;;;;;;24.20;61.50;;;;;;6324645;27;19927;-41
2022/08/20 00:22:05;;;;;;;;;;;24.10;61.40;;;;;;6304474;27;19969;-38
2022/08/20 00:25:08;;;;;;;;;;;24.00;61.40;;;;;;6323053;27;19927;-39
2022/08/20 00:28:13;;;;;;;;;;;23.90;61.30;;;;;;6302552;27;20006;-39
2022/08/20 00:31:16;;;;;;;;;;;24.00;61.40;;;;;;6324025;27;20779;-38
2022/08/20 00:34:18;;;;;;;;;;;24.20;61.50;;;;;;6302012;27;20046;-38
2022/08/20 00:37:19;;;;;;;;;;;23.90;61.30;;;;;;6319864;27;19926;-42
2022/08/20 00:40:26;;;;;;;;;;;24.00;61.40;;;;;;6326253;27;22049;-40
2022/08/20 00:43:31;;;;;;;;;;;24.10;61.40;;;;;;6304762;27;19919;-38
2022/08/20 00:46:33;;;;;;;;;;;24.20;61.40;;;;;;6322901;27;20820;-39
2022/08/20 00:49:34;;;;;;;;;;;23.80;61.20;;;;;;6306498;27;19927;-39
2022/08/20 00:52:36;;;;;;;;;;;24.20;61.60;;;;;;6308004;27;19919;-40
2022/08/20 00:55:38;;;;;;;;;;;23.90;61.30;;;;;;6327760;27;20033;-39
2022/08/20 00:58:41;;;;;;;;;;;24.10;61.40;;;;;;6331861;27;20019;-39
2022/08/20 01:01:43;;;;;;;;;;;24.20;61.40;;;;;;6330784;27;19927;-41
2022/08/20 01:04:57;;;;;;;;;;;23.90;61.30;;;;;;6307051;27;19922;-39
2022/08/20 01:07:58;;;;;;;;;;;24.00;61.40;;;;;;6327742;27;19970;-38
2022/08/20 01:11:08;;;;;;;;;;;24.00;61.50;;;;;;6325509;27;20769;-39
2022/08/20 01:14:23;;;;;;;;;;;23.90;61.30;;;;;;6326479;27;21518;-40
2022/08/20 01:17:25;;;;;;;;;;;24.30;61.50;;;;;;6310780;27;19923;-41
2022/08/20 01:20:29;;;;;;;;;;;23.90;61.30;;;;;;6305875;27;19975;-39
2022/08/20 01:23:33;;;;;;;;;;;23.80;61.20;;;;;;6328067;27;19930;-38
2022/08/20 01:26:36;;;;;;;;;;;23.80;61.30;;;;;;6324873;27;19986;-39
2022/08/20 01:29:38;;;;;;;;;;;23.80;61.30;;;;;;6302854;27;19923;-39
2022/08/20 01:32:40;;;;;;;;;;;23.80;61.20;;;;;;6323919;27;19927;-41
2022/08/20 01:35:41;;;;;;;;;;;24.00;61.40;;;;;;6318008;27;19927;-39
2022/08/20 01:38:44;;;;;;;;;;;23.70;61.80;;;;;;6319516;27;19981;-40
2022/08/20 01:42:02;;;;;;;;;;;23.90;61.20;;;;;;6300134;27;20794;-39
2022/08/20 01:45:03;;;;;;;;;;;23.90;61.20;;;;;;6299130;27;19970;-39
2022/08/20 01:48:05;;;;;;;;;;;23.80;61.10;;;;;;6312728;27;19927;-39
2022/08/20 01:51:10;;;;;;;;;;;23.80;61.20;;;;;;6312657;27;19926;-39
2022/08/20 01:54:12;;;;;;;;;;;23.90;61.30;;;;;;6299162;27;19970;-39
2022/08/20 01:57:15;;;;;;;;;;;23.80;61.20;;;;;;6319669;27;20047;-39
2022/08/20 02:00:18;;;;;;;;;;;23.80;61.20;;;;;;6304773;27;19930;-38
2022/08/20 02:03:22;;;;;;;;;;;23.80;61.20;;;;;;6321114;27;20787;-39
2022/08/20 02:06:24;;;;;;;;;;;23.90;61.20;;;;;;6324143;27;19927;-38
2022/08/20 02:09:27;;;;;;;;;;;23.80;61.20;;;;;;6309352;27;20217;-38
2022/08/20 02:12:29;;;;;;;;;;;23.90;61.20;;;;;;6305560;27;19922;-40
2022/08/20 02:15:30;;;;;;;;;;;23.80;61.20;;;;;;6322629;27;19980;-41
2022/08/20 02:18:40;;;;;;;;;;;23.90;61.20;;;;;;6324393;27;19931;-39
2022/08/20 02:21:47;;;;;;;;;;;23.90;61.20;;;;;;6324041;27;20803;-39
2022/08/20 02:24:48;;;;;;;;;;;23.90;61.20;;;;;;6307440;27;19931;-39
2022/08/20 02:27:51;;;;;;;;;;;23.90;61.20;;;;;;6303477;27;19972;-39
2022/08/20 02:30:54;;;;;;;;;;;23.70;61.10;;;;;;6321297;27;19919;-38
2022/08/20 02:33:55;;;;;;;;;;;23.80;61.40;;;;;;6323174;27;19934;-40
2022/08/20 02:37:17;;;;;;;;;;;23.60;61.00;;;;;;6306870;27;19931;-39
2022/08/20 02:40:19;;;;;;;;;;;23.80;61.10;;;;;;6323714;27;19999;-42
2022/08/20 02:43:32;;;;;;;;;;;23.60;61.00;;;;;;6295417;27;19996;-40
2022/08/20 02:46:34;;;;;;;;;;;23.80;61.10;;;;;;6332016;27;19973;-41
2022/08/20 02:49:35;;;;;;;;;;;24.20;61.40;;;;;;6326718;27;19960;-40
2022/08/20 02:52:37;;;;;;;;;;;24.30;61.50;;;;;;6331845;27;20859;-38
2022/08/20 02:55:38;;;;;;;;;;;23.70;61.10;;;;;;6327002;27;20070;-40
2022/08/20 02:58:41;;;;;;;;;;;23.80;61.20;;;;;;6324851;27;19961;-40
2022/08/20 03:01:42;;;;;;;;;;;23.60;61.00;;;;;;6326306;27;20049;-39
2022/08/20 03:04:44;;;;;;;;;;;23.60;61.10;;;;;;6328155;27;20093;-39
2022/08/20 03:07:46;;;;;;;;;;;23.70;61.10;;;;;;6312479;27;20762;-38
2022/08/20 03:10:49;;;;;;;;;;;23.60;61.00;;;;;;6308248;27;19919;-40
2022/08/20 03:13:51;;;;;;;;;;;23.60;61.00;;;;;;6331636;27;20693;-38
2022/08/20 03:16:53;;;;;;;;;;;24.00;61.20;;;;;;6335322;27;19920;-39
2022/08/20 03:19:54;;;;;;;;;;;23.70;61.10;;;;;;6331615;27;20787;-39
2022/08/20 03:22:55;;;;;;;;;;;23.60;61.00;;;;;;6330762;27;20779;-41
2022/08/20 03:25:57;;;;;;;;;;;24.00;61.20;;;;;;6329038;27;19922;-40
2022/08/20 03:28:59;;;;;;;;;;;23.80;61.10;;;;;;6330038;27;20021;-41
2022/08/20 03:32:00;;;;;;;;;;;23.80;61.20;;;;;;6324647;27;19933;-39
2022/08/20 03:35:09;;;;;;;;;;;23.90;61.30;;;;;;6327189;27;19923;-39
2022/08/20 03:38:11;;;;;;;;;;;24.20;61.40;;;;;;6311120;27;19931;-40
2022/08/20 03:41:14;;;;;;;;;;;23.50;61.00;;;;;;6308843;27;19927;-41
2022/08/20 03:44:19;;;;;;;;;;;23.90;61.20;;;;;;6326925;27;20120;-39
2022/08/20 03:47:20;;;;;;;;;;;23.90;61.20;;;;;;6324624;27;19998;-39
2022/08/20 03:50:23;;;;;;;;;;;23.60;61.00;;;;;;6325974;27;20038;-39
2022/08/20 03:53:25;;;;;;;;;;;23.60;61.00;;;;;;6324637;27;20793;-39
2022/08/20 03:56:26;;;;;;;;;;;23.70;61.10;;;;;;6307211;27;20920;-39
2022/08/20 03:59:31;;;;;;;;;;;23.50;61.00;;;;;;6329651;27;20018;-39
2022/08/20 04:02:33;;;;;;;;;;;23.70;61.10;;;;;;6329366;27;19930;-41
2022/08/20 04:05:39;;;;;;;;;;;23.50;61.10;;;;;;6334243;27;19970;-38
2022/08/20 04:08:41;;;;;;;;;;;23.70;61.10;;;;;;6314030;27;19955;-39
2022/08/20 04:11:42;;;;;;;;;;;23.80;61.20;;;;;;6336205;27;20033;-39
2022/08/20 04:14:44;;;;;;;;;;;23.40;61.00;;;;;;6335143;27;20124;-39
2022/08/20 04:17:47;;;;;;;;;;;23.90;61.20;;;;;;6331477;27;20030;-38
2022/08/20 04:20:49;;;;;;;;;;;23.80;61.20;;;;;;6309738;27;20349;-39
2022/08/20 04:23:51;;;;;;;;;;;23.40;61.00;;;;;;6331049;27;20026;-40
2022/08/20 04:26:53;;;;;;;;;;;23.60;61.10;;;;;;6324847;27;20006;-38
2022/08/20 04:29:55;;;;;;;;;;;23.60;61.10;;;;;;6320787;27;19920;-41
2022/08/20 04:32:58;;;;;;;;;;;23.70;61.20;;;;;;6324263;27;20420;-40
2022/08/20 04:36:01;;;;;;;;;;;23.30;60.90;;;;;;6321337;27;19927;-40
2022/08/20 04:39:03;;;;;;;;;;;23.50;61.00;;;;;;6324781;27;19974;-38
2022/08/20 04:42:04;;;;;;;;;;;23.50;61.00;;;;;;6320779;27;20909;-39
2022/08/20 04:45:10;;;;;;;;;;;23.70;61.10;;;;;;6322035;27;20343;-39
2022/08/20 04:48:12;;;;;;;;;;;23.40;61.00;;;;;;6326987;27;19919;-39
2022/08/20 04:51:16;;;;;;;;;;;23.70;61.20;;;;;;6311211;27;19920;-39
2022/08/20 04:54:18;;;;;;;;;;;23.30;60.90;;;;;;6326216;27;19923;-39
2022/08/20 04:57:20;;;;;;;;;;;23.40;61.00;;;;;;6321594;27;20049;-38
2022/08/20 05:00:22;;;;;;;;;;;23.50;61.10;;;;;;6316909;27;19919;-39
2022/08/20 05:03:24;;;;;;;;;;;23.80;61.20;;;;;;6319721;27;19931;-41
2022/08/20 05:06:27;;;;;;;;;;;23.40;61.00;;;;;;6306475;27;20778;-39
2022/08/20 05:09:31;;;;;;;;;;;23.60;61.00;;;;;;6322248;27;19923;-38
2022/08/20 05:12:45;;;;;;;;;;;23.40;61.00;;;;;;6322785;27;19928;-40
2022/08/20 05:16:03;;;;;;;;;;;23.40;60.90;;;;;;6320479;27;20020;-39
2022/08/20 05:19:05;;;;;;;;;;;23.70;61.10;;;;;;6303438;27;19952;-39
2022/08/20 05:22:07;;;;;;;;;;;23.60;61.00;;;;;;6323391;27;19919;-42
2022/08/20 05:25:09;;;;;;;;;;;23.40;60.90;;;;;;6320189;27;19934;-42
2022/08/20 05:28:12;;;;;;;;;;;23.70;61.10;;;;;;6318438;27;20050;-38
2022/08/20 05:31:14;;;;;;;;;;;23.40;61.00;;;;;;6303620;27;19931;-39
2022/08/20 05:34:15;;;;;;;;;;;23.60;61.10;;;;;;6319544;27;20869;-40
2022/08/20 05:37:17;;;;;;;;;;;23.10;60.80;;;;;;6320745;27;19926;-40
2022/08/20 05:40:20;;;;;;;;;;;23.60;61.00;;;;;;6331892;27;19934;-38
2022/08/20 05:43:22;;;;;;;;;;;23.30;60.90;;;;;;6323139;27;19927;-39
2022/08/20 05:46:24;;;;;;;;;;;23.30;60.90;;;;;;6321821;27;19919;-40
2022/08/20 05:49:25;;;;;;;;;;;23.60;61.00;;;;;;6322146;27;20046;-40
2022/08/20 05:52:29;;;;;;;;;;;23.50;61.00;;;;;;6324178;27;20046;-38
2022/08/20 05:55:30;;;;;;;;;;;23.40;60.90;;;;;;6318827;27;19934;-38
2022/08/20 05:58:32;;;;;;;;;;;23.80;61.20;;;;;;6305256;27;19951;-40
2022/08/20 06:01:35;;;;;;;;;;;23.30;60.80;;;;;;6317230;27;19919;-39
2022/08/20 06:04:36;;;;;;;;;;;23.60;61.00;;;;;;6297560;27;20045;-38
2022/08/20 06:07:38;;;;;;;;;;;23.20;60.80;;;;;;6318470;27;19927;-39
2022/08/20 06:10:40;;;;;;;;;;;23.70;61.00;;;;;;6298348;27;20041;-39
2022/08/20 06:13:44;;;;;;;;;;;23.50;60.90;;;;;;6314975;27;19927;-38
2022/08/20 06:16:49;;;;;;;;;;;23.30;60.80;;;;;;6316427;27;19927;-39
2022/08/20 06:20:01;;;;;;;;;;;23.70;61.00;;;;;;6314719;27;19969;-38
2022/08/20 06:23:04;;;;;;;;;;;23.60;60.90;;;;;;6317720;27;20879;-38
2022/08/20 06:26:07;;;;;;;;;;;23.60;60.90;;;;;;6324773;27;20099;-38
2022/08/20 06:29:09;;;;;;;;;;;23.10;60.70;;;;;;6323092;27;19926;-38
2022/08/20 06:32:11;;;;;;;;;;;23.40;60.70;;;;;;6324706;27;19926;-40
2022/08/20 06:35:14;;;;;;;;;;;23.60;60.80;;;;;;6326314;27;20713;-40
2022/08/20 06:38:21;;;;;;;;;;;23.60;60.90;;;;;;6324152;27;19923;-39
2022/08/20 06:41:22;;;;;;;;;;;23.60;60.90;;;;;;6324841;27;20022;-39
2022/08/20 06:44:36;;;;;;;;;;;23.30;60.70;;;;;;6324181;27;20861;-41
2022/08/20 06:47:40;;;;;;;;;;;23.70;60.80;;;;;;6323319;27;19923;-39
2022/08/20 06:50:42;;;;;;;;;;;23.70;60.80;;;;;;6304393;27;19926;-40
2022/08/20 06:53:49;;;;;;;;;;;23.70;60.80;;;;;;6299686;27;20041;-38
2022/08/20 06:56:53;;;;;;;;;;;23.30;60.50;;;;;;6314655;27;20046;-41
2022/08/20 06:59:54;;;;;;;;;;;23.60;60.70;;;;;;6318990;27;19955;-40
2022/08/20 07:02:58;;;;;;;;;;;23.40;60.50;;;;;;6319173;27;19946;-38
2022/08/20 07:05:59;;;;;;;;;;;23.20;60.40;;;;;;6317406;27;19927;-38
2022/08/20 07:09:01;;;;;;;;;;;23.40;60.50;;;;;;6314293;27;19959;-39
2022/08/20 07:12:02;;;;;;;;;;;23.60;60.60;;;;;;6316455;27;20042;-38
2022/08/20 07:15:06;;;;;;;;;;;23.40;60.40;;;;;;6313200;27;19988;-39
2022/08/20 07:18:08;;;;;;;;;;;23.70;60.50;;;;;;6317041;27;19922;-38
2022/08/20 07:21:10;;;;;;;;;;;23.70;60.50;;;;;;6298790;27;19927;-38
2022/08/20 07:24:12;;;;;;;;;;;23.60;60.40;;;;;;6316726;27;19931;-39
2022/08/20 07:27:14;;;;;;;;;;;23.40;60.40;;;;;;6318566;27;19923;-38
2022/08/20 07:33:29;;;;;;;;;;;23.40;60.30;;;;;;6317102;27;20018;-39
2022/08/20 07:36:31;;;;;;;;;;;23.40;60.20;;;;;;6303092;27;19926;-38
2022/08/20 07:39:34;;;;;;;;;;;23.40;60.20;;;;;;6320192;27;20047;-39
2022/08/20 07:42:38;;;;;;;;;;;23.50;60.30;;;;;;6302517;27;20596;-38
2022/08/20 07:45:39;;;;;;;;;;;23.50;60.20;;;;;;6319916;27;20033;-41
2022/08/20 07:48:50;;;;;;;;;;;23.50;60.10;;;;;;6319774;27;20034;-39
2022/08/20 07:51:51;;;;;;;;;;;23.50;60.10;;;;;;6318349;27;19984;-38
2022/08/20 07:54:52;;;;;;;;;;;23.60;60.10;;;;;;6321892;27;19942;-38
2022/08/20 07:57:54;;;;;;;;;;;23.80;60.20;;;;;;6324025;27;20781;-40
2022/08/20 08:00:56;;;;;;;;;;;24.30;60.50;;;;;;6327785;27;19947;-38
2022/08/20 08:04:00;;;;;;;;;;;23.50;60.00;;;;;;6321358;27;19930;-38
2022/08/20 08:07:01;;;;;;;;;;;23.60;60.00;;;;;;6319308;27;19923;-39
2022/08/20 08:10:04;;;;;;;;;;;23.60;60.00;;;;;;6298935;27;20939;-39
2022/08/20 08:13:08;;;;;;;;;;;23.80;60.00;;;;;;6302041;27;19995;-39
2022/08/20 08:16:09;;;;;;;;;;;23.70;60.00;;;;;;6299751;27;20034;-39
2022/08/20 08:19:13;;;;;;;;;;;23.60;59.90;;;;;;6318530;27;20786;-39
2022/08/20 08:22:16;;;;;;;;;;;24.00;60.00;;;;;;6320229;27;19935;-40
2022/08/20 08:25:17;;;;;;;;;;;23.90;60.00;;;;;;6319716;27;19932;-38
2022/08/20 08:28:22;;;;;;;;;;;23.30;59.60;;;;;;6319322;27;19960;-38
2022/08/20 08:31:24;;;;;;;;;;;23.70;59.80;;;;;;6318053;27;19926;-39
2022/08/20 08:34:26;;;;;;;;;;;23.80;59.80;;;;;;6311366;27;20698;-39
2022/08/20 08:37:28;;;;;;;;;;;23.70;59.70;;;;;;6307791;27;20271;-39
2022/08/20 08:40:32;;;;;;;;;;;24.00;59.80;;;;;;6303299;27;20045;-42
2022/08/20 08:43:34;;;;;;;;;;;24.00;59.80;;;;;;6309402;27;20033;-39
2022/08/20 08:46:39;;;;;;;;;;;23.70;59.60;;;;;;6307572;27;19954;-38
2022/08/20 08:49:45;;;;;;;;;;;24.10;59.70;;;;;;6311481;27;20250;-41
2022/08/20 08:52:49;;;;;;;;;;;24.30;59.80;;;;;;6303294;27;19926;-39
2022/08/20 08:55:50;;;;;;;;;;;24.10;59.70;;;;;;6306064;27;20144;-40
2022/08/20 08:58:54;;;;;;;;;;;24.10;59.60;;;;;;6325509;27;19923;-40
2022/08/20 09:01:57;;;;;;;;;;;24.00;59.60;;;;;;6325714;27;19996;-39
2022/08/20 09:05:01;;;;;;;;;;;23.80;59.40;;;;;;6306344;27;19999;-39
2022/08/20 09:08:05;;;;;;;;;;;24.20;59.60;;;;;;6325003;27;19923;-39
2022/08/20 09:11:07;;;;;;;;;;;24.00;59.50;;;;;;6307862;27;21328;-38
2022/08/20 09:14:08;;;;;;;;;;;24.20;59.60;;;;;;6324938;27;20045;-39
2022/08/20 09:17:10;;;;;;;;;;;24.00;59.50;;;;;;6330273;27;19974;-40
2022/08/20 09:20:15;;;;;;;;;;;24.30;59.40;;;;;;6327238;27;20970;-39
2022/08/20 09:23:16;;;;;;;;;;;24.10;59.40;;;;;;6324013;27;19995;-39
2022/08/20 09:26:17;;;;;;;;;;;23.80;59.20;;;;;;6324491;27;20864;-39
2022/08/20 09:29:19;;;;;;;;;;;24.50;59.60;;;;;;6327374;27;20038;-38
2022/08/20 09:32:21;;;;;;;;;;;24.00;60.00;;;;;;6325126;27;20957;-38
2022/08/20 09:35:23;;;;;;;;;;;24.60;59.60;;;;;;6304273;27;19931;-40
2022/08/20 09:38:24;;;;;;;;;;;24.30;59.40;;;;;;6321496;27;21554;-39
2022/08/20 09:41:25;;;;;;;;;;;24.20;59.30;;;;;;6323944;27;19962;-39
2022/08/20 09:44:27;;;;;;;;;;;24.10;59.20;;;;;;6324181;27;19926;-39
2022/08/20 09:47:28;;;;;;;;;;;24.00;59.20;;;;;;6326296;27;20001;-41
2022/08/20 09:50:32;;;;;;;;;;;24.10;59.20;;;;;;6322882;27;20011;-39
2022/08/20 09:53:34;;;;;;;;;;;24.10;59.10;;;;;;6321137;27;20025;-39
2022/08/20 09:56:35;;;;;;;;;;;24.30;59.20;;;;;;6324068;27;20763;-39
2022/08/20 09:59:40;;;;;;;;;;;24.10;59.10;;;;;;6318238;27;20034;-40
2022/08/20 10:02:41;;;;;;;;;;;24.40;59.20;;;;;;6322596;27;19927;-38
2022/08/20 10:05:43;;;;;;;;;;;24.00;59.00;;;;;;6323493;27;19919;-40
2022/08/20 10:08:48;;;;;;;;;;;24.30;59.70;;;;;;6323138;27;20089;-39
2022/08/20 10:11:49;;;;;;;;;;;24.40;59.20;;;;;;6318090;27;19927;-38
2022/08/20 10:14:54;;;;;;;;;;;24.20;59.10;;;;;;6322402;27;19927;-38
2022/08/20 10:17:56;;;;;;;;;;;24.40;59.10;;;;;;6323398;27;19919;-39
2022/08/20 10:20:58;;;;;;;;;;;24.30;59.00;;;;;;6322059;27;20901;-39
2022/08/20 10:23:59;;;;;;;;;;;24.20;59.00;;;;;;6322646;27;19956;-38
2022/08/20 10:27:01;;;;;;;;;;;24.50;59.10;;;;;;6306674;27;20844;-39
2022/08/20 10:30:03;;;;;;;;;;;24.50;59.10;;;;;;6324568;27;20894;-38
2022/08/20 10:33:05;;;;;;;;;;;24.40;59.00;;;;;;6305638;27;20045;-40
2022/08/20 10:36:07;;;;;;;;;;;24.40;59.00;;;;;;6321728;27;20895;-39
2022/08/20 10:39:12;;;;;;;;;;;24.50;59.00;;;;;;6323943;27;19926;-38
2022/08/20 10:42:13;;;;;;;;;;;24.50;59.10;;;;;;6324364;27;19926;-38
2022/08/20 10:45:15;;;;;;;;;;;24.30;58.90;;;;;;6323154;27;19969;-39
2022/08/20 10:48:16;;;;;;;;;;;24.30;58.80;;;;;;6319674;27;19927;-38
2022/08/20 10:51:23;;;;;;;;;;;24.50;58.90;;;;;;6324832;27;19928;-38
2022/08/20 10:54:33;;;;;;;;;;;24.10;58.70;;;;;;6324908;27;19926;-39
2022/08/20 10:57:36;;;;;;;;;;;24.40;58.80;;;;;;6321271;27;19969;-39
2022/08/20 11:00:38;;;;;;;;;;;24.20;58.70;;;;;;6323159;27;19924;-40
2022/08/20 11:03:39;;;;;;;;;;;24.40;58.70;;;;;;6326572;27;19923;-40
2022/08/20 11:06:41;;;;;;;;;;;24.50;58.70;;;;;;6326593;27;19927;-40
2022/08/20 11:09:44;;;;;;;;;;;24.60;58.70;;;;;;6319830;27;20400;-40
2022/08/20 11:12:45;;;;;;;;;;;24.30;58.50;;;;;;6312074;27;20045;-40
2022/08/20 11:15:47;;;;;;;;;;;24.70;58.70;;;;;;6311610;27;20949;-38
2022/08/20 11:18:48;;;;;;;;;;;24.70;58.70;;;;;;6313991;27;20209;-40
2022/08/20 11:21:50;;;;;;;;;;;24.70;58.60;;;;;;6313812;27;20831;-38
2022/08/20 11:24:52;;;;;;;;;;;24.70;58.60;;;;;;6314160;27;20018;-40
2022/08/20 11:27:54;;;;;;;;;;;24.80;58.70;;;;;;6297316;27;20330;-42
2022/08/20 11:30:56;;;;;;;;;;;24.50;58.40;;;;;;6295023;27;20675;-39
2022/08/20 11:33:57;;;;;;;;;;;24.50;58.40;;;;;;6313251;27;20054;-41
2022/08/20 11:36:59;;;;;;;;;;;24.40;58.30;;;;;;6313667;27;20011;-38
2022/08/20 11:40:04;;;;;;;;;;;24.70;58.50;;;;;;6315192;27;20069;-43
2022/08/20 11:43:05;;;;;;;;;;;24.80;58.50;;;;;;6316164;27;20165;-39
2022/08/20 11:46:16;;;;;;;;;;;24.50;58.30;;;;;;6311671;27;20131;-40
2022/08/20 11:49:18;;;;;;;;;;;24.50;58.30;;;;;;6313092;27;20546;-40
2022/08/20 11:52:20;;;;;;;;;;;24.90;58.50;;;;;;6311751;27;20788;-38
2022/08/20 11:55:21;;;;;;;;;;;24.70;58.30;;;;;;6312638;27;19986;-41
2022/08/20 11:58:32;;;;;;;;;;;24.70;58.30;;;;;;6313699;27;20122;-38
2022/08/20 12:01:34;;;;;;;;;;;24.70;58.30;;;;;;6309894;27;20031;-41
2022/08/20 12:04:35;;;;;;;;;;;24.50;58.20;;;;;;6310517;27;20213;-38
2022/08/20 12:07:37;;;;;;;;;;;24.70;58.30;;;;;;6310658;27;19958;-39
2022/08/20 12:10:38;;;;;;;;;;;24.70;58.30;;;;;;6307247;27;20266;-40
2022/08/20 12:13:40;;;;;;;;;;;24.90;58.40;;;;;;6309163;27;20018;-42
2022/08/20 12:16:49;;;;;;;;;;;24.90;58.30;;;;;;6312892;27;21061;-40
2022/08/20 12:19:52;;;;;;;;;;;24.50;58.10;;;;;;6315387;27;20176;-42
2022/08/20 12:22:55;;;;;;;;;;;24.50;58.00;;;;;;6312239;27;19922;-39
2022/08/20 12:25:56;;;;;;;;;;;24.40;58.00;;;;;;6311760;27;20580;-38
2022/08/20 12:29:00;;;;;;;;;;;24.60;58.00;;;;;;6311018;27;19927;-39
2022/08/20 12:32:05;;;;;;;;;;;24.70;58.10;;;;;;6304733;27;19923;-39
2022/08/20 12:35:08;;;;;;;;;;;24.70;58.00;;;;;;6306076;27;20059;-40
2022/08/20 12:38:10;;;;;;;;;;;24.70;58.00;;;;;;6304192;27;20220;-38
2022/08/20 12:41:14;;;;;;;;;;;24.80;58.00;;;;;;6301566;27;20949;-38
2022/08/20 12:44:16;;;;;;;;;;;24.80;58.00;;;;;;6306911;27;20809;-40
2022/08/20 12:47:18;;;;;;;;;;;24.70;58.00;;;;;;6299835;27;20019;-40
2022/08/20 12:50:20;;;;;;;;;;;24.50;57.80;;;;;;6286337;27;20234;-42
2022/08/20 12:53:22;;;;;;;;;;;24.70;57.90;;;;;;6303602;27;19981;-41
2022/08/20 12:56:23;;;;;;;;;;;24.80;57.90;;;;;;6305387;27;20502;-38
2022/08/20 12:59:25;;;;;;;;;;;24.80;57.90;;;;;;6305005;27;20456;-39
2022/08/20 13:02:27;;;;;;;;;;;24.90;57.90;;;;;;6288105;27;20833;-38
2022/08/20 13:05:29;;;;;;;;;;;24.80;57.90;;;;;;6311078;27;20221;-38
2022/08/20 13:08:31;;;;;;;;;;;24.80;57.80;;;;;;6288837;27;19927;-38
2022/08/20 13:11:32;;;;;;;;;;;24.80;58.20;;;;;;6308399;27;20311;-40
2022/08/20 13:14:33;;;;;;;;;;;24.90;57.80;;;;;;6305250;27;20453;-39
2022/08/20 13:17:35;;;;;;;;;;;25.00;57.80;;;;;;6311136;27;19934;-39
2022/08/20 13:20:40;;;;;;;;;;;24.60;57.60;;;;;;6306749;27;20281;-41
2022/08/20 13:23:42;;;;;;;;;;;24.70;57.60;;;;;;6308734;27;19923;-39
2022/08/20 13:26:43;;;;;;;;;;;24.90;57.70;;;;;;6307748;27;19954;-39
2022/08/20 13:29:46;;;;;;;;;;;24.90;57.70;;;;;;6309392;27;20084;-38
2022/08/20 13:32:47;;;;;;;;;;;24.70;57.50;;;;;;6307284;27;20532;-41
2022/08/20 13:35:48;;;;;;;;;;;24.90;57.60;;;;;;6303569;27;20232;-40
2022/08/20 13:38:50;;;;;;;;;;;24.70;57.50;;;;;;6307315;27;20229;-40
2022/08/20 13:41:52;;;;;;;;;;;25.10;57.70;;;;;;6306194;27;20174;-38
2022/08/20 13:44:53;;;;;;;;;;;24.60;57.40;;;;;;6302442;27;20960;-42
2022/08/20 13:47:54;;;;;;;;;;;25.00;57.50;;;;;;6307862;27;20034;-39
2022/08/20 13:50:56;;;;;;;;;;;24.90;57.50;;;;;;6306858;27;20461;-38
2022/08/20 13:53:59;;;;;;;;;;;25.00;57.50;;;;;;6307307;27;20541;-40
2022/08/20 13:57:04;;;;;;;;;;;24.60;57.20;;;;;;6307058;27;19928;-38
2022/08/20 14:00:08;;;;;;;;;;;24.90;57.40;;;;;;6289258;27;20318;-42
2022/08/20 14:03:13;;;;;;;;;;;24.80;57.30;;;;;;6307807;27;20609;-40
2022/08/20 14:06:20;;;;;;;;;;;25.30;57.50;;;;;;6306305;27;20240;-40
2022/08/20 14:09:22;;;;;;;;;;;24.80;57.20;;;;;;6306232;27;20260;-40
2022/08/20 14:12:25;;;;;;;;;;;24.70;57.10;;;;;;6308635;27;20066;-41
2022/08/20 14:15:26;;;;;;;;;;;24.80;57.10;;;;;;6304884;27;20283;-38
2022/08/20 14:18:27;;;;;;;;;;;24.80;57.10;;;;;;6294500;27;20381;-39
2022/08/20 14:21:29;;;;;;;;;;;25.10;57.20;;;;;;6298320;27;20238;-40
2022/08/20 14:24:31;;;;;;;;;;;24.80;57.10;;;;;;6301746;27;20004;-40
2022/08/20 14:27:32;;;;;;;;;;;24.90;57.10;;;;;;6300510;27;20208;-39
2022/08/20 14:30:34;;;;;;;;;;;24.90;57.10;;;;;;6305978;27;20767;-40
2022/08/20 14:33:35;;;;;;;;;;;25.00;57.10;;;;;;6308048;27;20032;-43
2022/08/20 14:36:37;;;;;;;;;;;24.70;56.90;;;;;;6305803;27;19966;-38
2022/08/20 14:39:40;;;;;;;;;;;25.00;57.10;;;;;;6308374;27;19939;-40
2022/08/20 14:42:42;;;;;;;;;;;25.10;57.10;;;;;;6289199;27;20716;-38
2022/08/20 14:45:46;;;;;;;;;;;24.80;56.80;;;;;;6290932;27;20381;-40
2022/08/20 14:48:48;;;;;;;;;;;25.20;57.10;;;;;;6307757;27;20858;-39
2022/08/20 14:51:55;;;;;;;;;;;24.80;56.80;;;;;;6306579;27;20014;-39
2022/08/20 14:54:57;;;;;;;;;;;25.10;57.00;;;;;;6305786;27;19933;-39
2022/08/20 14:57:58;;;;;;;;;;;25.10;57.00;;;;;;6307906;27;19923;-41
2022/08/20 15:01:00;;;;;;;;;;;25.10;57.00;;;;;;6306262;27;20202;-38
2022/08/20 15:04:01;;;;;;;;;;;25.10;56.90;;;;;;6306511;27;20548;-39
2022/08/20 15:07:04;;;;;;;;;;;25.00;56.80;;;;;;6305388;27;20259;-40
2022/08/20 15:10:15;;;;;;;;;;;24.90;56.70;;;;;;6291137;27;20293;-39
2022/08/20 15:13:20;;;;;;;;;;;24.80;56.60;;;;;;6310633;27;20071;-38
2022/08/20 15:16:21;;;;;;;;;;;24.90;56.60;;;;;;6309015;27;19974;-39
2022/08/20 15:19:23;;;;;;;;;;;25.20;56.80;;;;;;6309175;27;19931;-39
2022/08/20 15:22:24;;;;;;;;;;;24.90;56.60;;;;;;6311046;27;20632;-41
2022/08/20 15:25:28;;;;;;;;;;;25.00;56.60;;;;;;6308777;27;20128;-42
2022/08/20 15:28:38;;;;;;;;;;;25.10;56.70;;;;;;6290548;27;19927;-42
2022/08/20 15:31:42;;;;;;;;;;;25.10;56.60;;;;;;6291343;27;20045;-39
2022/08/20 15:34:45;;;;;;;;;;;25.20;56.70;;;;;;6307739;27;20627;-39
2022/08/20 15:37:47;;;;;;;;;;;25.00;56.50;;;;;;6301363;27;20470;-38
2022/08/20 15:40:49;;;;;;;;;;;25.00;56.40;;;;;;6289847;27;20289;-42
2022/08/20 15:43:51;;;;;;;;;;;25.10;56.50;;;;;;6306659;27;20210;-39
2022/08/20 15:46:52;;;;;;;;;;;25.20;56.50;;;;;;6309508;27;20277;-39
2022/08/20 15:49:58;;;;;;;;;;;25.10;56.40;;;;;;6302844;27;19955;-39
2022/08/20 15:53:03;;;;;;;;;;;24.70;56.20;;;;;;6310672;27;19967;-40
2022/08/20 15:56:10;;;;;;;;;;;25.20;56.50;;;;;;6288723;27;20033;-41
2022/08/20 15:59:15;;;;;;;;;;;25.10;56.40;;;;;;6308906;27;19966;-38
2022/08/20 16:02:32;;;;;;;;;;;24.90;56.20;;;;;;6299922;27;19997;-38
2022/08/20 16:05:41;;;;;;;;;;;24.90;56.20;;;;;;6294859;27;20853;-39
2022/08/20 16:08:49;;;;;;;;;;;25.00;56.20;;;;;;6294853;27;20352;-43
2022/08/20 16:11:54;;;;;;;;;;;25.10;56.20;;;;;;6304228;27;20463;-41
2022/08/20 16:14:58;;;;;;;;;;;25.20;56.20;;;;;;6303378;27;20374;-41
2022/08/20 16:18:04;;;;;;;;;;;25.10;56.20;;;;;;6300909;27;19974;-39
2022/08/20 16:21:08;;;;;;;;;;;25.30;56.20;;;;;;6301158;27;20162;-40
2022/08/20 16:24:09;;;;;;;;;;;24.90;56.00;;;;;;6297445;27;20427;-39
2022/08/20 16:27:21;;;;;;;;;;;25.00;55.90;;;;;;6304845;27;20521;-39
2022/08/20 16:30:28;;;;;;;;;;;25.10;56.00;;;;;;6300953;27;20246;-40
2022/08/20 16:33:30;;;;;;;;;;;25.00;55.90;;;;;;6306125;27;20347;-40
2022/08/20 16:36:34;;;;;;;;;;;25.10;55.80;;;;;;6308113;27;20066;-39
2022/08/20 16:39:39;;;;;;;;;;;25.20;55.90;;;;;;6305328;27;20277;-42
2022/08/20 16:42:43;;;;;;;;;;;25.10;55.80;;;;;;6307978;27;21096;-39
2022/08/20 16:45:50;;;;;;;;;;;25.10;55.80;;;;;;6308077;27;20427;-38
2022/08/20 16:48:56;;;;;;;;;;;25.40;56.00;;;;;;6303391;27;19934;-40
2022/08/20 16:51:58;;;;;;;;;;;25.00;55.70;;;;;;6306938;27;19923;-39
2022/08/20 16:55:00;;;;;;;;;;;25.00;55.60;;;;;;6309858;27;19923;-41
2022/08/20 16:58:02;;;;;;;;;;;25.40;55.90;;;;;;6308091;27;20176;-41
2022/08/20 17:01:06;;;;;;;;;;;25.30;55.80;;;;;;6306739;27;19995;-41
2022/08/20 17:04:07;;;;;;;;;;;25.50;55.90;;;;;;6305799;27;20432;-39
2022/08/20 17:07:08;;;;;;;;;;;25.30;55.70;;;;;;6306833;27;19932;-38
2022/08/20 17:10:17;;;;;;;;;;;25.10;55.60;;;;;;6307326;27;19927;-40
2022/08/20 17:13:20;;;;;;;;;;;25.10;55.50;;;;;;6304969;27;19928;-41
2022/08/20 17:16:27;;;;;;;;;;;25.00;55.40;;;;;;6309744;27;20409;-40
2022/08/20 17:19:29;;;;;;;;;;;25.10;55.40;;;;;;6310549;27;20464;-42
2022/08/20 17:22:38;;;;;;;;;;;25.20;55.40;;;;;;6312153;27;19970;-41
2022/08/20 17:25:39;;;;;;;;;;;25.20;55.40;;;;;;6289189;27;21093;-39
2022/08/20 17:28:48;;;;;;;;;;;25.20;55.40;;;;;;6309282;27;20245;-38
2022/08/20 17:31:50;;;;;;;;;;;25.20;55.30;;;;;;6291815;27;20801;-43
2022/08/20 17:34:53;;;;;;;;;;;25.20;55.30;;;;;;6289219;27;20439;-38
2022/08/20 17:37:58;;;;;;;;;;;25.20;55.30;;;;;;6303684;27;20211;-38
2022/08/20 17:41:01;;;;;;;;;;;25.00;55.10;;;;;;6286282;27;20336;-41
2022/08/20 17:44:05;;;;;;;;;;;25.20;55.20;;;;;;6303997;27;20090;-41
2022/08/20 17:47:08;;;;;;;;;;;25.50;55.40;;;;;;6279705;27;19923;-39